Time;durP1;ratioP1;P1;durP2;ratioP2;P2;SDS_P1;SDS_P2;PMS_P1;PMS_P2;Temp;Humidity;BMP_temperature;BMP_pressure;BME280_temperature;BME280_humidity;BME280_pressure;Samples;Min_cycle;Max_cycle;Signal;HPM_P1;HPM_P2
2023/12/15 00:04:47;;;;;;;25.27;18.67;;;;;;;;;;13100408;22;20484;-96
2023/12/15 00:09:49;;;;;;;27.63;19.08;;;;;;;;;;13124901;22;20402;-96
2023/12/15 00:14:53;;;;;;;26.45;18.55;;;;;;;;;;13106805;22;20431;-96
2023/12/15 00:19:56;;;;;;;22.88;17.17;;;;;;;;;;13108092;22;20460;-95
2023/12/15 00:24:58;;;;;;;26.70;18.57;;;;;;;;;;13130168;22;20409;-96
2023/12/15 00:30:03;;;;;;;27.80;19.63;;;;;;;;;;13108690;22;20402;-96
2023/12/15 01:10:49;;;;;;;31.53;19.70;;;;;;;;;;13100497;22;20477;-96
2023/12/15 01:15:51;;;;;;;26.30;16.80;;;;;;;;;;13115748;22;20444;-91
2023/12/15 01:20:54;;;;;;;25.27;16.98;;;;;;;;;;13172570;22;20430;-95
2023/12/15 01:25:57;;;;;;;22.10;15.82;;;;;;;;;;13173170;22;20414;-95
2023/12/15 01:31:02;;;;;;;21.47;15.43;;;;;;;;;;13173042;22;20636;-96
2023/12/15 01:36:06;;;;;;;24.67;16.33;;;;;;;;;;13194965;22;20406;-96
2023/12/15 01:41:10;;;;;;;20.95;15.57;;;;;;;;;;13195112;22;20438;-96
2023/12/15 01:46:12;;;;;;;21.85;15.35;;;;;;;;;;13116560;22;20378;-96
2023/12/15 01:51:15;;;;;;;22.60;15.03;;;;;;;;;;13101748;22;20540;-95
2023/12/15 01:56:19;;;;;;;24.27;15.18;;;;;;;;;;13106252;22;20467;-96
2023/12/15 02:01:22;;;;;;;22.92;14.88;;;;;;;;;;13102344;22;20370;-95
2023/12/15 02:06:24;;;;;;;22.60;14.65;;;;;;;;;;13102645;22;20412;-96
2023/12/15 02:11:28;;;;;;;22.02;14.90;;;;;;;;;;13100891;22;20427;-96
2023/12/15 02:16:31;;;;;;;24.95;16.30;;;;;;;;;;13123134;22;20341;-96
2023/12/15 02:21:34;;;;;;;25.02;15.80;;;;;;;;;;13101486;22;20454;-96
2023/12/15 02:26:38;;;;;;;24.80;15.32;;;;;;;;;;13126683;22;20435;-88
2023/12/15 02:31:40;;;;;;;22.05;14.77;;;;;;;;;;13101785;22;20458;-95
2023/12/15 02:36:43;;;;;;;20.95;14.85;;;;;;;;;;13102384;22;20392;-95
2023/12/15 02:41:47;;;;;;;22.38;14.30;;;;;;;;;;13102874;22;20418;-96
2023/12/15 02:46:49;;;;;;;20.35;14.25;;;;;;;;;;13099309;22;20403;-96
2023/12/15 02:51:52;;;;;;;22.90;15.70;;;;;;;;;;13101938;22;20366;-95
2023/12/15 02:56:56;;;;;;;20.77;14.07;;;;;;;;;;13098399;22;20366;-96
2023/12/15 03:01:58;;;;;;;23.77;15.23;;;;;;;;;;13096647;22;20486;-96
2023/12/15 03:07:01;;;;;;;24.63;15.40;;;;;;;;;;13094366;22;20357;-96
2023/12/15 03:12:08;;;;;;;22.27;15.03;;;;;;;;;;13114466;22;20394;-95
2023/12/15 03:17:10;;;;;;;23.88;15.38;;;;;;;;;;13092315;22;20349;-96
2023/12/15 03:22:13;;;;;;;23.73;15.60;;;;;;;;;;13119434;22;20353;-94
2023/12/15 03:27:17;;;;;;;23.30;16.00;;;;;;;;;;13094789;22;20349;-95
2023/12/15 03:32:20;;;;;;;22.30;14.70;;;;;;;;;;13095120;22;20369;-96
2023/12/15 03:37:22;;;;;;;20.92;15.25;;;;;;;;;;13118209;22;20387;-95
2023/12/15 03:42:26;;;;;;;22.88;15.80;;;;;;;;;;13096802;22;20406;-96
2023/12/15 03:47:29;;;;;;;20.67;14.52;;;;;;;;;;13121035;22;20352;-96
2023/12/15 03:52:31;;;;;;;24.60;15.18;;;;;;;;;;13121626;22;20364;-96
2023/12/15 03:57:35;;;;;;;21.45;15.73;;;;;;;;;;13118059;22;20364;-95
2023/12/15 04:02:38;;;;;;;21.92;15.40;;;;;;;;;;13096060;22;20356;-91
2023/12/15 04:07:41;;;;;;;22.90;15.00;;;;;;;;;;13098426;22;20370;-96
2023/12/15 04:12:45;;;;;;;23.43;15.60;;;;;;;;;;13098781;22;20357;-95
2023/12/15 04:17:47;;;;;;;22.67;15.25;;;;;;;;;;13099492;22;20345;-96
2023/12/15 04:22:50;;;;;;;22.63;16.25;;;;;;;;;;13099527;22;20404;-96
2023/12/15 04:27:54;;;;;;;23.92;15.80;;;;;;;;;;13100360;22;20369;-96
2023/12/15 04:32:56;;;;;;;28.08;16.20;;;;;;;;;;13100605;22;20394;-96
2023/12/15 04:37:59;;;;;;;23.77;16.40;;;;;;;;;;13098891;22;20488;-96
2023/12/15 04:43:03;;;;;;;21.23;15.50;;;;;;;;;;13100665;22;20341;-95
2023/12/15 04:48:05;;;;;;;22.17;15.05;;;;;;;;;;13100444;22;20353;-96
2023/12/15 04:53:08;;;;;;;19.45;13.88;;;;;;;;;;13122422;22;20412;-96
2023/12/15 04:58:12;;;;;;;21.27;15.10;;;;;;;;;;13106714;22;20416;-95
2023/12/15 05:03:14;;;;;;;22.67;14.80;;;;;;;;;;13105489;22;20467;-96
2023/12/15 05:08:17;;;;;;;20.23;12.60;;;;;;;;;;13104720;22;20416;-95
2023/12/15 05:13:24;;;;;;;18.93;12.43;;;;;;;;;;13067871;22;20385;-95
2023/12/15 05:23:41;;;;;;;17.35;11.45;;;;;;;;;;13081805;22;20423;-96
2023/12/15 05:28:46;;;;;;;19.07;11.93;;;;;;;;;;13107488;22;20463;-90
2023/12/15 05:34:16;;;;;;;14.63;10.77;;;;;;;;;;13079644;22;20471;31
2023/12/15 06:50:57;;;;;;;11.20;6.97;;;;;;;;;;13121137;22;20379;-96
2023/12/15 06:56:01;;;;;;;10.00;6.90;;;;;;;;;;13078509;22;20353;-96
2023/12/15 07:01:04;;;;;;;10.18;7.10;;;;;;;;;;13099440;22;20873;-95
2023/12/15 07:06:09;;;;;;;10.13;6.93;;;;;;;;;;13084775;22;20356;-94
2023/12/15 07:11:11;;;;;;;10.30;6.75;;;;;;;;;;13083536;22;20382;-95
2023/12/15 07:16:13;;;;;;;10.90;7.40;;;;;;;;;;13057291;22;20361;-96
2023/12/15 07:21:17;;;;;;;10.40;6.60;;;;;;;;;;13053945;22;20361;-95
2023/12/15 07:26:19;;;;;;;12.55;7.32;;;;;;;;;;13057074;22;20400;-93
2023/12/15 07:31:22;;;;;;;10.20;6.85;;;;;;;;;;13067878;22;20477;-94
2023/12/15 07:36:25;;;;;;;9.97;7.13;;;;;;;;;;13099382;22;20392;-94
2023/12/15 07:41:28;;;;;;;11.32;7.35;;;;;;;;;;13064348;22;20361;-93
2023/12/15 07:46:30;;;;;;;11.63;7.80;;;;;;;;;;13044659;22;20370;-92
2023/12/15 07:51:34;;;;;;;10.93;7.25;;;;;;;;;;13116683;22;20414;-95
2023/12/15 08:30:54;;;;;;;15.65;8.68;;;;;;;;;;13038447;22;20462;-94
2023/12/15 08:35:56;;;;;;;13.10;8.20;;;;;;;;;;13124352;22;20367;-95
2023/12/15 08:40:59;;;;;;;14.13;8.43;;;;;;;;;;13126612;22;20888;-95
2023/12/15 08:46:03;;;;;;;12.13;8.40;;;;;;;;;;13122832;22;20369;-90
2023/12/15 08:51:06;;;;;;;13.00;8.33;;;;;;;;;;13157352;22;20375;-96
2023/12/15 08:56:08;;;;;;;15.80;9.00;;;;;;;;;;13111628;22;20363;-88
2023/12/15 09:01:12;;;;;;;14.40;9.15;;;;;;;;;;13108255;22;20363;-87
2023/12/15 09:06:14;;;;;;;13.52;8.93;;;;;;;;;;13107354;22;20390;-86
2023/12/15 09:11:17;;;;;;;15.38;9.40;;;;;;;;;;13130507;22;20376;-87
2023/12/15 09:16:21;;;;;;;14.27;9.37;;;;;;;;;;13114731;22;20519;-96
2023/12/15 09:45:45;;;;;;;17.13;11.50;;;;;;;;;;13056423;22;20423;-96
2023/12/15 10:45:56;;;;;;;13.27;9.90;;;;;;;;;;13046426;22;20454;-90
2023/12/15 10:51:00;;;;;;;14.80;9.25;;;;;;;;;;13046617;22;20384;-90
2023/12/15 10:56:02;;;;;;;13.35;9.30;;;;;;;;;;13038015;22;20386;-90
2023/12/15 11:01:09;;;;;;;14.80;8.87;;;;;;;;;;13044530;22;20361;-89
2023/12/15 11:06:11;;;;;;;11.05;7.95;;;;;;;;;;13044354;22;20365;-89
2023/12/15 11:11:22;;;;;;;11.05;8.25;;;;;;;;;;13045382;22;20385;-89
2023/12/15 11:16:29;;;;;;;9.75;7.38;;;;;;;;;;13045107;22;20365;-89
2023/12/15 11:21:31;;;;;;;10.75;8.30;;;;;;;;;;13044392;22;21143;-89
2023/12/15 11:26:37;;;;;;;13.60;8.25;;;;;;;;;;13045552;22;20434;-89
2023/12/15 11:31:41;;;;;;;9.05;6.38;;;;;;;;;;13044926;22;20902;-89
2023/12/15 11:36:45;;;;;;;12.53;7.67;;;;;;;;;;13046190;22;20369;-90
2023/12/15 11:41:49;;;;;;;16.70;10.87;;;;;;;;;;13044946;22;20369;-89
2023/12/15 11:46:55;;;;;;;16.63;10.20;;;;;;;;;;13066090;22;20410;-89
2023/12/15 11:52:00;;;;;;;13.13;9.40;;;;;;;;;;13043162;22;20411;-89
2023/12/15 11:57:05;;;;;;;13.02;10.30;;;;;;;;;;13045630;22;20390;-89
2023/12/15 12:02:09;;;;;;;12.43;9.93;;;;;;;;;;13046456;22;20832;-90
2023/12/15 12:07:12;;;;;;;15.38;10.50;;;;;;;;;;13031487;22;20924;-85
2023/12/15 12:12:37;;;;;;;13.57;10.15;;;;;;;;;;13029264;22;20384;-91
2023/12/15 12:17:41;;;;;;;14.02;10.00;;;;;;;;;;13018939;22;20430;-91
2023/12/15 12:22:45;;;;;;;14.35;10.23;;;;;;;;;;13036864;22;20430;-84
2023/12/15 12:27:47;;;;;;;13.32;9.63;;;;;;;;;;13034437;22;20373;-87
2023/12/15 12:32:51;;;;;;;14.13;9.52;;;;;;;;;;13034427;22;20435;-88
2023/12/15 12:37:53;;;;;;;16.30;10.05;;;;;;;;;;13037285;22;20381;-85
2023/12/15 12:42:58;;;;;;;12.18;9.60;;;;;;;;;;13034905;22;20452;-88
2023/12/15 12:48:02;;;;;;;18.97;11.83;;;;;;;;;;13036346;22;20385;-87
2023/12/15 12:53:04;;;;;;;15.48;10.52;;;;;;;;;;13029005;22;20466;-87
2023/12/15 12:58:06;;;;;;;11.38;10.18;;;;;;;;;;13029526;22;20774;-87
2023/12/15 13:03:10;;;;;;;12.20;9.75;;;;;;;;;;13028362;22;20377;-87
2023/12/15 13:08:14;;;;;;;11.80;8.80;;;;;;;;;;13029661;22;20399;-87
2023/12/15 13:13:16;;;;;;;10.50;8.82;;;;;;;;;;13032745;22;20373;-86
2023/12/15 13:18:20;;;;;;;11.32;8.75;;;;;;;;;;13037438;22;20368;-87
2023/12/15 13:23:22;;;;;;;13.57;9.05;;;;;;;;;;13038765;22;20838;-86
2023/12/15 13:28:27;;;;;;;10.00;8.13;;;;;;;;;;13035649;22;20387;-86
2023/12/15 13:33:31;;;;;;;14.93;8.27;;;;;;;;;;13042093;22;20381;-87
2023/12/15 13:38:33;;;;;;;10.57;7.80;;;;;;;;;;13037531;22;20369;-88
2023/12/15 13:43:42;;;;;;;14.70;8.60;;;;;;;;;;13035646;22;20502;-89
2023/12/15 13:48:46;;;;;;;13.60;7.47;;;;;;;;;;13034110;22;20361;-90
2023/12/15 13:53:49;;;;;;;11.50;8.02;;;;;;;;;;13038787;22;20418;-89
2023/12/15 13:58:51;;;;;;;9.60;6.83;;;;;;;;;;13041792;22;20418;-87
2023/12/15 14:03:56;;;;;;;9.07;7.60;;;;;;;;;;13038461;22;20697;-85
2023/12/15 14:08:58;;;;;;;9.38;7.53;;;;;;;;;;13038848;22;20884;-87
2023/12/15 14:14:01;;;;;;;13.90;7.65;;;;;;;;;;13033825;22;20376;-86
2023/12/15 14:19:05;;;;;;;13.48;9.60;;;;;;;;;;13035002;22;20365;-86
2023/12/15 14:24:08;;;;;;;11.63;7.30;;;;;;;;;;13037673;22;20446;-87
2023/12/15 14:29:10;;;;;;;10.97;7.13;;;;;;;;;;13027874;22;20365;-87
2023/12/15 14:34:14;;;;;;;9.67;7.27;;;;;;;;;;13053110;22;20833;-90
2023/12/15 14:39:16;;;;;;;9.90;7.20;;;;;;;;;;13060030;22;20391;-89
2023/12/15 14:44:19;;;;;;;11.37;6.33;;;;;;;;;;13055960;22;20365;-89
2023/12/15 14:49:23;;;;;;;9.93;7.40;;;;;;;;;;13063462;22;20435;-89
2023/12/15 14:54:25;;;;;;;8.95;7.10;;;;;;;;;;13039297;22;20423;-87
2023/12/15 14:59:27;;;;;;;9.05;7.30;;;;;;;;;;13041030;22;20400;-89
2023/12/15 15:04:31;;;;;;;10.07;7.45;;;;;;;;;;13035943;22;20364;-87
2023/12/15 15:09:34;;;;;;;9.30;7.07;;;;;;;;;;13035908;22;20430;-88
2023/12/15 15:14:39;;;;;;;10.83;7.53;;;;;;;;;;13039732;22;20845;-89
2023/12/15 15:19:42;;;;;;;12.20;8.57;;;;;;;;;;13065677;22;20353;-89
2023/12/15 15:24:45;;;;;;;13.40;8.47;;;;;;;;;;13041482;22;20373;-85
2023/12/15 15:29:53;;;;;;;19.43;11.57;;;;;;;;;;13040239;22;20361;-87
2023/12/15 15:35:01;;;;;;;11.67;8.40;;;;;;;;;;13063488;22;20435;-87
2023/12/15 15:40:13;;;;;;;12.90;8.25;;;;;;;;;;13045831;22;20395;-94
2023/12/15 15:45:20;;;;;;;12.43;8.75;;;;;;;;;;13031860;22;20360;-83
2023/12/15 15:50:30;;;;;;;14.02;8.88;;;;;;;;;;13036956;22;20353;-79
2023/12/15 15:55:32;;;;;;;13.00;8.95;;;;;;;;;;13030502;22;20855;-79
2023/12/15 16:00:37;;;;;;;11.20;8.48;;;;;;;;;;13032400;22;20422;-78
2023/12/15 16:05:50;;;;;;;15.93;10.07;;;;;;;;;;13033508;22;20430;-79
2023/12/15 16:10:54;;;;;;;14.57;10.20;;;;;;;;;;13029527;22;20365;-79
2023/12/15 16:16:05;;;;;;;16.27;9.88;;;;;;;;;;13027441;22;20380;-79
2023/12/15 16:26:54;;;;;;;14.40;10.68;;;;;;;;;;10570364;27;20373;-80
2023/12/15 16:32:01;;;;;;;22.33;13.68;;;;;;;;;;10562306;27;20925;-80
2023/12/15 16:37:07;;;;;;;18.70;13.10;;;;;;;;;;10566391;27;20419;-80
2023/12/15 16:42:11;;;;;;;17.97;11.50;;;;;;;;;;10567774;27;20504;-81
2023/12/15 16:47:24;;;;;;;18.93;12.47;;;;;;;;;;10581727;27;20572;-80
2023/12/15 16:52:29;;;;;;;18.13;12.23;;;;;;;;;;10566188;27;20461;-80
2023/12/15 16:57:36;;;;;;;20.00;13.13;;;;;;;;;;10570847;27;20472;-81
2023/12/15 17:02:41;;;;;;;19.48;13.48;;;;;;;;;;10562894;27;20972;-80
2023/12/15 17:07:49;;;;;;;23.43;14.60;;;;;;;;;;10572223;27;20485;-80
2023/12/15 17:12:57;;;;;;;21.65;15.10;;;;;;;;;;10564357;28;20435;-80
2023/12/15 17:17:59;;;;;;;27.60;16.30;;;;;;;;;;10578149;28;20430;-80
2023/12/15 17:23:03;;;;;;;27.23;17.08;;;;;;;;;;10569363;27;20516;-79
2023/12/15 17:28:09;;;;;;;25.95;18.13;;;;;;;;;;10572259;27;20434;-79
2023/12/15 17:33:16;;;;;;;28.50;18.05;;;;;;;;;;10562553;27;20701;-80
2023/12/15 17:38:23;;;;;;;26.85;17.27;;;;;;;;;;10550270;28;20421;-80
2023/12/15 17:43:29;;;;;;;27.75;17.67;;;;;;;;;;10546636;28;20444;-80
2023/12/15 17:48:37;;;;;;;35.23;22.00;;;;;;;;;;10553546;28;20975;-79
2023/12/15 17:53:51;;;;;;;34.60;22.60;;;;;;;;;;10550615;28;20853;-80
2023/12/15 17:59:03;;;;;;;33.50;22.05;;;;;;;;;;10558204;27;20422;-80
2023/12/15 18:04:12;;;;;;;34.30;22.70;;;;;;;;;;10543359;27;20763;-81
2023/12/15 18:09:21;;;;;;;40.33;25.15;;;;;;;;;;10552529;28;20466;-80
2023/12/15 18:14:29;;;;;;;43.63;27.75;;;;;;;;;;10557215;28;20426;-80
2023/12/15 18:19:32;;;;;;;43.10;27.33;;;;;;;;;;10542975;28;20846;-81
2023/12/15 18:24:46;;;;;;;97.35;49.72;;;;;;;;;;10542996;27;20439;-80
2023/12/15 18:29:59;;;;;;;59.92;33.15;;;;;;;;;;10540840;28;20526;-81
2023/12/15 18:35:01;;;;;;;40.42;25.63;;;;;;;;;;10535450;28;21090;-82
2023/12/15 18:40:17;;;;;;;35.53;22.77;;;;;;;;;;10537929;28;20887;-78
2023/12/15 18:45:27;;;;;;;34.90;21.52;;;;;;;;;;10544622;28;20843;-82
2023/12/15 18:56:05;;;;;;;30.03;19.63;;;;;;;;;;10291843;23;20537;-88
2023/12/15 19:01:16;;;;;;;31.05;19.35;;;;;;;;;;10215912;28;20495;-85
2023/12/15 19:06:22;;;;;;;27.48;18.15;;;;;;;;;;10215703;29;20488;-85
2023/12/15 19:11:29;;;;;;;32.13;18.20;;;;;;;;;;10217694;29;20476;-84
2023/12/15 19:16:36;;;;;;;28.65;17.35;;;;;;;;;;10219329;28;20491;-84
2023/12/15 19:21:42;;;;;;;24.80;15.48;;;;;;;;;;10213962;28;20526;-84
2023/12/15 19:26:47;;;;;;;27.83;17.40;;;;;;;;;;10220845;28;21075;-84
2023/12/15 19:31:53;;;;;;;25.07;15.27;;;;;;;;;;10211683;29;20457;-83
2023/12/15 19:36:59;;;;;;;24.23;14.85;;;;;;;;;;10214733;29;21010;-83
2023/12/15 19:42:09;;;;;;;20.45;13.60;;;;;;;;;;10213595;29;20470;-82
2023/12/15 19:47:21;;;;;;;46.72;31.23;;;;;;;;;;10229724;28;20444;-83
2023/12/15 19:52:28;;;;;;;22.47;13.57;;;;;;;;;;10218213;28;20453;-83
2023/12/15 19:57:33;;;;;;;19.08;12.68;;;;;;;;;;10216795;28;20468;-85
2023/12/15 20:02:36;;;;;;;17.05;11.57;;;;;;;;;;10209609;29;20445;-86
2023/12/15 20:07:39;;;;;;;20.52;12.25;;;;;;;;;;10212504;29;20448;-86
2023/12/15 20:12:45;;;;;;;16.40;11.00;;;;;;;;;;10229122;28;20452;-86
2023/12/15 20:17:51;;;;;;;17.07;10.53;;;;;;;;;;10215959;28;20457;-84
2023/12/15 20:22:53;;;;;;;15.95;10.00;;;;;;;;;;10215999;29;20444;-83
2023/12/15 20:27:56;;;;;;;20.02;10.77;;;;;;;;;;10214317;29;20516;-84
2023/12/15 20:33:00;;;;;;;16.05;10.35;;;;;;;;;;10216479;29;20441;-82
2023/12/15 20:38:03;;;;;;;15.75;10.30;;;;;;;;;;10214163;29;20455;-86
2023/12/15 20:43:05;;;;;;;15.57;9.50;;;;;;;;;;10232491;29;20420;-85
2023/12/15 20:48:09;;;;;;;12.77;8.75;;;;;;;;;;10222162;29;20487;-91
2023/12/15 20:53:15;;;;;;;13.70;9.07;;;;;;;;;;10249159;28;20482;-81
2023/12/15 20:58:22;;;;;;;20.90;13.27;;;;;;;;;;10232126;28;20467;-82
2023/12/15 21:03:29;;;;;;;24.23;14.80;;;;;;;;;;10222641;29;20478;-86
2023/12/15 21:08:31;;;;;;;24.50;15.93;;;;;;;;;;10211663;29;20452;-86
2023/12/15 21:13:35;;;;;;;28.83;17.13;;;;;;;;;;10218459;29;20884;-86
2023/12/15 21:18:44;;;;;;;24.40;14.45;;;;;;;;;;10214229;29;20533;-86
2023/12/15 21:23:48;;;;;;;26.38;15.50;;;;;;;;;;10223157;29;20609;-84
2023/12/15 21:28:55;;;;;;;27.73;15.83;;;;;;;;;;10219402;28;20504;-86
2023/12/15 21:33:59;;;;;;;22.08;15.57;;;;;;;;;;10221256;28;20500;-85
2023/12/15 21:39:03;;;;;;;25.20;15.50;;;;;;;;;;10229740;29;20558;-85
2023/12/15 21:44:05;;;;;;;23.13;14.82;;;;;;;;;;10220352;29;20528;-85
2023/12/15 21:49:11;;;;;;;20.42;13.25;;;;;;;;;;10217600;29;20466;-87
2023/12/15 21:54:16;;;;;;;19.40;12.57;;;;;;;;;;10236118;29;20500;-86
2023/12/15 21:59:20;;;;;;;18.73;11.88;;;;;;;;;;10223961;28;20423;-84
2023/12/15 22:04:31;;;;;;;19.40;13.57;;;;;;;;;;10223608;29;20433;-87
2023/12/15 22:09:33;;;;;;;17.92;11.70;;;;;;;;;;10238198;28;20917;-87
2023/12/15 22:14:37;;;;;;;22.73;13.32;;;;;;;;;;10216014;28;20415;-86
2023/12/15 22:19:41;;;;;;;20.87;14.03;;;;;;;;;;10221113;28;20503;-87
2023/12/15 22:24:43;;;;;;;16.77;12.30;;;;;;;;;;10223848;28;20504;-86
2023/12/15 22:29:47;;;;;;;21.58;12.70;;;;;;;;;;10219526;29;20521;-86
2023/12/15 22:34:51;;;;;;;16.73;12.00;;;;;;;;;;10222293;29;20454;-86
2023/12/15 22:39:56;;;;;;;19.08;12.00;;;;;;;;;;10226900;28;20486;-87
2023/12/15 22:44:59;;;;;;;18.33;12.23;;;;;;;;;;10218993;28;20510;-85
2023/12/15 22:50:04;;;;;;;19.37;11.60;;;;;;;;;;10223915;28;20465;-84
2023/12/15 22:55:08;;;;;;;20.07;12.93;;;;;;;;;;10221442;29;20626;-84
2023/12/15 23:00:16;;;;;;;25.35;16.27;;;;;;;;;;10223987;29;20481;-86
2023/12/15 23:05:20;;;;;;;18.70;12.20;;;;;;;;;;10220828;28;20518;-86
2023/12/15 23:10:22;;;;;;;23.10;15.20;;;;;;;;;;10227175;29;20532;-87
2023/12/15 23:15:25;;;;;;;17.23;11.50;;;;;;;;;;10235031;29;20453;-86
2023/12/15 23:20:28;;;;;;;20.47;14.37;;;;;;;;;;10221326;28;20896;-86
2023/12/15 23:25:31;;;;;;;22.47;14.50;;;;;;;;;;10221006;29;20519;-86
2023/12/15 23:30:33;;;;;;;18.23;11.80;;;;;;;;;;10221901;28;20462;-86
2023/12/15 23:35:37;;;;;;;19.45;11.85;;;;;;;;;;10219951;28;20493;-85
2023/12/15 23:40:40;;;;;;;18.53;11.70;;;;;;;;;;10221576;29;20522;-86
2023/12/15 23:45:42;;;;;;;19.63;11.25;;;;;;;;;;10214518;29;20499;-87
2023/12/15 23:50:46;;;;;;;17.02;11.10;;;;;;;;;;10219587;29;20486;-85
2023/12/15 23:55:48;;;;;;;17.23;11.90;;;;;;;;;;10221665;29;20565;-86
